Happy Valley, Oregon
Current Conditions -  °F | °C
As of 5:53 AM on Thursday 27 Nov 2014 (Local Time) from KTTD Reporting Station
Light Rain Light Rain  
Wind Chill: 60°   Ceiling: 5000
Heat Index: 60°   Visibility: 10mi
Dew Point: 46°   Wind: 7mph
Humidity: 60%   Direction: 200°SSW
Pressure: 29.97"   Gusts: NA
Location:  45.45°N, 122.53°W
Report Text: KTTD 271353Z AUTO 20006KT 10SM -RA OVC050 16/08 A2997 RMK AO2 RAB45 SLP147 P0000 T01560078
Loading
Personal Weather Stations






























Interactive Weather Map New forecast layout! Learn more

10-Day Weather Forecast

Advertisements
Track Severe Weather on mobile